sensor_id;sensor_type;location;lat;lon;timestamp;pressure;altitude;pressure_sealevel;temperature;humidity
71149;BME280;59072;42.144;25.200;2023-04-26T00:01:35;99128.50;;;13.12;100.00
71149;BME280;59072;42.144;25.200;2023-04-26T00:04:01;99127.97;;;13.15;100.00
71149;BME280;59072;42.144;25.200;2023-04-26T00:06:27;99126.50;;;13.30;100.00
71149;BME280;59072;42.144;25.200;2023-04-26T00:08:52;99126.75;;;13.28;100.00
71149;BME280;59072;42.144;25.200;2023-04-26T00:11:18;99130.28;;;13.39;100.00
71149;BME280;59072;42.144;25.200;2023-04-26T00:13:43;99121.09;;;13.24;100.00
71149;BME280;59072;42.144;25.200;2023-04-26T00:16:09;99120.38;;;13.39;100.00
71149;BME280;59072;42.144;25.200;2023-04-26T00:18:34;99118.44;;;13.30;100.00
71149;BME280;59072;42.144;25.200;2023-04-26T00:21:00;99117.94;;;13.33;100.00
71149;BME280;59072;42.144;25.200;2023-04-26T00:23:25;99112.47;;;13.70;100.00
71149;BME280;59072;42.144;25.200;2023-04-26T00:25:51;99111.09;;;13.62;100.00
71149;BME280;59072;42.144;25.200;2023-04-26T00:28:16;99111.69;;;13.70;100.00
71149;BME280;59072;42.144;25.200;2023-04-26T00:30:41;99095.81;;;13.53;100.00
71149;BME280;59072;42.144;25.200;2023-04-26T00:33:12;99105.72;;;13.52;100.00
71149;BME280;59072;42.144;25.200;2023-04-26T00:35:37;99107.91;;;13.65;100.00
71149;BME280;59072;42.144;25.200;2023-04-26T00:38:02;99114.31;;;13.64;100.00
71149;BME280;59072;42.144;25.200;2023-04-26T00:40:29;99109.78;;;13.70;100.00
71149;BME280;59072;42.144;25.200;2023-04-26T00:42:57;99098.88;;;13.24;100.00
71149;BME280;59072;42.144;25.200;2023-04-26T00:45:23;99099.56;;;13.04;100.00
71149;BME280;59072;42.144;25.200;2023-04-26T00:47:49;99094.19;;;13.04;100.00
71149;BME280;59072;42.144;25.200;2023-04-26T00:50:15;99092.63;;;13.13;100.00
71149;BME280;59072;42.144;25.200;2023-04-26T00:52:40;99097.03;;;13.30;100.00
71149;BME280;59072;42.144;25.200;2023-04-26T00:55:07;99102.78;;;13.54;100.00
71149;BME280;59072;42.144;25.200;2023-04-26T00:57:33;99099.25;;;13.43;100.00
71149;BME280;59072;42.144;25.200;2023-04-26T00:59:58;99087.81;;;13.63;100.00
71149;BME280;59072;42.144;25.200;2023-04-26T01:02:23;99087.50;;;13.54;100.00
71149;BME280;59072;42.144;25.200;2023-04-26T01:04:49;99090.00;;;13.71;100.00
71149;BME280;59072;42.144;25.200;2023-04-26T01:07:16;99085.31;;;13.46;100.00
71149;BME280;59072;42.144;25.200;2023-04-26T01:09:42;99077.50;;;13.29;100.00
71149;BME280;59072;42.144;25.200;2023-04-26T01:12:08;99070.28;;;13.35;100.00
71149;BME280;59072;42.144;25.200;2023-04-26T01:14:34;99077.28;;;13.41;100.00
71149;BME280;59072;42.144;25.200;2023-04-26T01:17:02;99072.25;;;13.07;100.00
71149;BME280;59072;42.144;25.200;2023-04-26T01:19:29;99070.50;;;13.28;100.00
71149;BME280;59072;42.144;25.200;2023-04-26T01:21:55;99070.88;;;13.47;100.00
71149;BME280;59072;42.144;25.200;2023-04-26T01:24:20;99065.19;;;13.33;100.00
71149;BME280;59072;42.144;25.200;2023-04-26T01:26:46;99065.53;;;12.99;100.00
71149;BME280;59072;42.144;25.200;2023-04-26T01:29:16;99066.34;;;13.00;100.00
71149;BME280;59072;42.144;25.200;2023-04-26T01:31:42;99062.91;;;13.10;100.00
71149;BME280;59072;42.144;25.200;2023-04-26T01:34:08;99066.03;;;13.44;100.00
71149;BME280;59072;42.144;25.200;2023-04-26T01:36:33;99056.19;;;13.55;100.00
71149;BME280;59072;42.144;25.200;2023-04-26T01:38:59;99061.03;;;13.68;100.00
71149;BME280;59072;42.144;25.200;2023-04-26T01:41:24;99059.44;;;13.72;100.00
71149;BME280;59072;42.144;25.200;2023-04-26T01:43:49;99059.16;;;13.63;100.00
71149;BME280;59072;42.144;25.200;2023-04-26T01:46:15;99055.97;;;13.82;100.00
71149;BME280;59072;42.144;25.200;2023-04-26T01:48:40;99053.25;;;13.61;100.00
71149;BME280;59072;42.144;25.200;2023-04-26T01:51:06;99052.69;;;13.54;100.00
71149;BME280;59072;42.144;25.200;2023-04-26T01:53:31;99038.78;;;13.57;100.00
71149;BME280;59072;42.144;25.200;2023-04-26T01:56:00;99042.44;;;13.31;100.00
71149;BME280;59072;42.144;25.200;2023-04-26T01:58:26;99033.50;;;13.15;100.00
71149;BME280;59072;42.144;25.200;2023-04-26T02:00:52;99029.47;;;13.12;100.00
71149;BME280;59072;42.144;25.200;2023-04-26T02:03:17;99034.72;;;12.97;100.00
71149;BME280;59072;42.144;25.200;2023-04-26T02:05:43;99035.38;;;13.14;100.00
71149;BME280;59072;42.144;25.200;2023-04-26T02:08:08;99033.19;;;13.11;100.00
71149;BME280;59072;42.144;25.200;2023-04-26T02:10:34;99037.03;;;12.78;100.00
71149;BME280;59072;42.144;25.200;2023-04-26T02:12:59;99038.03;;;12.66;100.00
71149;BME280;59072;42.144;25.200;2023-04-26T02:15:24;99032.97;;;12.65;100.00
71149;BME280;59072;42.144;25.200;2023-04-26T02:17:50;99037.69;;;12.53;100.00
71149;BME280;59072;42.144;25.200;2023-04-26T02:20:18;99034.00;;;12.59;100.00
71149;BME280;59072;42.144;25.200;2023-04-26T02:22:43;99027.47;;;12.44;100.00
71149;BME280;59072;42.144;25.200;2023-04-26T02:25:09;99032.44;;;12.68;100.00
71149;BME280;59072;42.144;25.200;2023-04-26T02:27:35;99027.31;;;12.61;100.00
71149;BME280;59072;42.144;25.200;2023-04-26T02:30:01;99037.41;;;12.97;100.00
71149;BME280;59072;42.144;25.200;2023-04-26T02:32:26;99039.63;;;13.10;100.00
71149;BME280;59072;42.144;25.200;2023-04-26T02:34:52;99050.22;;;13.32;100.00
71149;BME280;59072;42.144;25.200;2023-04-26T02:37:17;99060.22;;;13.04;100.00
71149;BME280;59072;42.144;25.200;2023-04-26T02:39:42;99062.00;;;13.36;100.00
71149;BME280;59072;42.144;25.200;2023-04-26T02:42:08;99055.16;;;13.13;100.00
71149;BME280;59072;42.144;25.200;2023-04-26T02:44:35;99055.72;;;12.73;100.00
71149;BME280;59072;42.144;25.200;2023-04-26T02:47:00;99060.50;;;13.13;100.00
71149;BME280;59072;42.144;25.200;2023-04-26T02:49:26;99058.03;;;13.01;100.00
71149;BME280;59072;42.144;25.200;2023-04-26T02:51:51;99063.22;;;13.18;100.00
71149;BME280;59072;42.144;25.200;2023-04-26T02:54:17;99070.81;;;12.89;100.00
71149;BME280;59072;42.144;25.200;2023-04-26T02:56:42;99074.38;;;13.00;100.00
71149;BME280;59072;42.144;25.200;2023-04-26T02:59:08;99072.25;;;13.07;100.00
71149;BME280;59072;42.144;25.200;2023-04-26T03:01:33;99055.25;;;12.81;100.00
71149;BME280;59072;42.144;25.200;2023-04-26T03:03:59;99062.34;;;13.07;100.00
71149;BME280;59072;42.144;25.200;2023-04-26T03:06:24;99045.63;;;12.80;100.00
71149;BME280;59072;42.144;25.200;2023-04-26T03:08:49;99054.75;;;12.89;100.00
71149;BME280;59072;42.144;25.200;2023-04-26T03:11:15;99069.09;;;13.15;100.00
71149;BME280;59072;42.144;25.200;2023-04-26T03:13:40;99062.69;;;13.21;100.00
71149;BME280;59072;42.144;25.200;2023-04-26T03:16:06;99055.69;;;13.10;100.00
71149;BME280;59072;42.144;25.200;2023-04-26T03:18:31;99069.94;;;13.21;100.00
71149;BME280;59072;42.144;25.200;2023-04-26T03:20:58;99064.16;;;12.97;100.00
71149;BME280;59072;42.144;25.200;2023-04-26T03:23:23;99072.31;;;13.17;100.00
71149;BME280;59072;42.144;25.200;2023-04-26T03:25:50;99073.88;;;13.08;100.00
71149;BME280;59072;42.144;25.200;2023-04-26T03:28:16;99071.44;;;12.64;100.00
71149;BME280;59072;42.144;25.200;2023-04-26T03:30:41;99069.94;;;12.41;100.00
71149;BME280;59072;42.144;25.200;2023-04-26T03:33:07;99058.56;;;12.23;100.00
71149;BME280;59072;42.144;25.200;2023-04-26T03:35:32;99054.84;;;12.24;100.00
71149;BME280;59072;42.144;25.200;2023-04-26T03:37:57;99047.94;;;12.34;100.00
71149;BME280;59072;42.144;25.200;2023-04-26T03:40:23;99047.69;;;12.30;100.00
71149;BME280;59072;42.144;25.200;2023-04-26T03:42:48;99046.34;;;12.33;100.00
71149;BME280;59072;42.144;25.200;2023-04-26T03:45:14;99045.97;;;12.19;100.00
71149;BME280;59072;42.144;25.200;2023-04-26T03:47:39;99040.00;;;12.39;100.00
71149;BME280;59072;42.144;25.200;2023-04-26T03:50:06;99049.34;;;12.36;100.00
71149;BME280;59072;42.144;25.200;2023-04-26T03:52:32;99039.59;;;12.62;100.00
71149;BME280;59072;42.144;25.200;2023-04-26T03:54:57;99042.97;;;12.48;100.00
71149;BME280;59072;42.144;25.200;2023-04-26T03:57:23;99062.22;;;12.87;100.00
71149;BME280;59072;42.144;25.200;2023-04-26T03:59:48;99056.03;;;12.76;100.00
71149;BME280;59072;42.144;25.200;2023-04-26T04:02:14;99069.72;;;12.48;100.00
71149;BME280;59072;42.144;25.200;2023-04-26T04:04:39;99056.78;;;12.02;100.00
71149;BME280;59072;42.144;25.200;2023-04-26T04:07:05;99086.63;;;12.21;100.00
71149;BME280;59072;42.144;25.200;2023-04-26T04:09:30;99078.84;;;12.19;100.00
71149;BME280;59072;42.144;25.200;2023-04-26T04:11:56;99095.38;;;12.43;100.00
71149;BME280;59072;42.144;25.200;2023-04-26T04:14:21;99087.91;;;12.45;100.00
71149;BME280;59072;42.144;25.200;2023-04-26T04:16:47;99092.22;;;12.52;100.00
71149;BME280;59072;42.144;25.200;2023-04-26T04:19:12;99091.81;;;12.65;100.00
71149;BME280;59072;42.144;25.200;2023-04-26T04:21:38;99087.19;;;12.60;100.00
71149;BME280;59072;42.144;25.200;2023-04-26T04:24:05;99088.19;;;12.81;100.00
71149;BME280;59072;42.144;25.200;2023-04-26T04:26:30;99097.38;;;12.96;100.00
71149;BME280;59072;42.144;25.200;2023-04-26T04:28:55;99091.28;;;12.68;100.00
71149;BME280;59072;42.144;25.200;2023-04-26T04:31:21;99110.47;;;12.60;100.00
71149;BME280;59072;42.144;25.200;2023-04-26T04:33:47;99106.56;;;13.10;100.00
71149;BME280;59072;42.144;25.200;2023-04-26T04:36:13;99081.03;;;12.97;100.00
71149;BME280;59072;42.144;25.200;2023-04-26T04:38:41;99105.34;;;12.91;100.00
71149;BME280;59072;42.144;25.200;2023-04-26T04:41:06;99102.25;;;13.09;100.00
71149;BME280;59072;42.144;25.200;2023-04-26T04:43:32;99100.53;;;12.88;100.00
71149;BME280;59072;42.144;25.200;2023-04-26T04:45:58;99082.47;;;13.15;100.00
71149;BME280;59072;42.144;25.200;2023-04-26T04:48:24;99108.94;;;13.54;100.00
71149;BME280;59072;42.144;25.200;2023-04-26T04:50:50;99100.34;;;13.52;100.00
71149;BME280;59072;42.144;25.200;2023-04-26T04:53:15;99077.28;;;13.46;100.00
71149;BME280;59072;42.144;25.200;2023-04-26T04:55:41;99085.44;;;13.77;100.00
71149;BME280;59072;42.144;25.200;2023-04-26T04:58:06;99079.00;;;13.78;100.00
71149;BME280;59072;42.144;25.200;2023-04-26T05:00:32;99089.25;;;14.01;100.00
71149;BME280;59072;42.144;25.200;2023-04-26T05:02:58;99087.63;;;14.05;100.00
71149;BME280;59072;42.144;25.200;2023-04-26T05:05:23;99092.19;;;14.05;100.00
71149;BME280;59072;42.144;25.200;2023-04-26T05:07:49;99091.31;;;13.79;100.00
71149;BME280;59072;42.144;25.200;2023-04-26T05:10:14;99088.63;;;13.69;100.00
71149;BME280;59072;42.144;25.200;2023-04-26T05:12:40;99087.06;;;13.83;100.00
71149;BME280;59072;42.144;25.200;2023-04-26T05:15:06;99078.22;;;13.82;100.00
71149;BME280;59072;42.144;25.200;2023-04-26T05:17:32;99082.28;;;14.05;100.00
71149;BME280;59072;42.144;25.200;2023-04-26T05:19:58;99069.94;;;13.94;100.00
71149;BME280;59072;42.144;25.200;2023-04-26T05:22:23;99072.63;;;13.94;100.00
71149;BME280;59072;42.144;25.200;2023-04-26T05:24:49;99079.84;;;13.83;100.00
71149;BME280;59072;42.144;25.200;2023-04-26T05:27:15;99080.63;;;13.74;100.00
71149;BME280;59072;42.144;25.200;2023-04-26T05:29:40;99084.66;;;13.81;100.00
71149;BME280;59072;42.144;25.200;2023-04-26T05:32:06;99086.44;;;13.60;100.00
71149;BME280;59072;42.144;25.200;2023-04-26T05:34:31;99081.66;;;13.68;100.00
71149;BME280;59072;42.144;25.200;2023-04-26T05:36:57;99087.06;;;13.78;100.00
71149;BME280;59072;42.144;25.200;2023-04-26T05:39:22;99087.25;;;13.51;100.00
71149;BME280;59072;42.144;25.200;2023-04-26T05:41:48;99081.66;;;13.68;100.00
71149;BME280;59072;42.144;25.200;2023-04-26T05:44:13;99090.75;;;13.66;100.00
71149;BME280;59072;42.144;25.200;2023-04-26T05:46:39;99090.81;;;13.82;100.00
71149;BME280;59072;42.144;25.200;2023-04-26T05:49:05;99090.00;;;13.71;100.00
71149;BME280;59072;42.144;25.200;2023-04-26T05:51:30;99099.63;;;13.72;100.00
71149;BME280;59072;42.144;25.200;2023-04-26T05:53:56;99088.91;;;13.67;100.00
71149;BME280;59072;42.144;25.200;2023-04-26T05:56:22;99079.00;;;13.78;100.00
71149;BME280;59072;42.144;25.200;2023-04-26T05:58:48;99091.97;;;14.17;100.00
71149;BME280;59072;42.144;25.200;2023-04-26T06:01:13;99091.44;;;14.40;100.00
71149;BME280;59072;42.144;25.200;2023-04-26T06:03:39;99086.63;;;14.53;100.00
71149;BME280;59072;42.144;25.200;2023-04-26T06:06:05;99089.31;;;14.73;100.00
71149;BME280;59072;42.144;25.200;2023-04-26T06:08:30;99080.72;;;14.76;100.00
71149;BME280;59072;42.144;25.200;2023-04-26T06:10:56;99088.50;;;14.88;100.00
71149;BME280;59072;42.144;25.200;2023-04-26T06:13:21;99095.75;;;14.88;99.27
71149;BME280;59072;42.144;25.200;2023-04-26T06:15:46;99091.97;;;14.89;100.00
71149;BME280;59072;42.144;25.200;2023-04-26T06:18:12;99091.19;;;14.83;100.00
71149;BME280;59072;42.144;25.200;2023-04-26T06:20:37;99086.06;;;14.97;100.00
71149;BME280;59072;42.144;25.200;2023-04-26T06:23:03;99082.31;;;14.82;100.00
71149;BME280;59072;42.144;25.200;2023-04-26T06:25:28;99093.25;;;15.27;100.00
71149;BME280;59072;42.144;25.200;2023-04-26T06:27:54;99091.94;;;15.14;100.00
71149;BME280;59072;42.144;25.200;2023-04-26T06:30:20;99095.41;;;15.10;100.00
71149;BME280;59072;42.144;25.200;2023-04-26T06:32:45;99088.16;;;15.15;100.00
71149;BME280;59072;42.144;25.200;2023-04-26T06:35:11;99086.19;;;15.41;100.00
71149;BME280;59072;42.144;25.200;2023-04-26T06:37:36;99094.59;;;15.19;100.00
71149;BME280;59072;42.144;25.200;2023-04-26T06:40:03;99088.97;;;15.05;100.00
71149;BME280;59072;42.144;25.200;2023-04-26T06:42:29;99095.66;;;15.23;100.00
71149;BME280;59072;42.144;25.200;2023-04-26T06:44:54;99104.13;;;15.56;100.00
71149;BME280;59072;42.144;25.200;2023-04-26T06:47:20;99100.22;;;15.93;98.87
71149;BME280;59072;42.144;25.200;2023-04-26T06:49:45;99104.88;;;16.22;97.69
71149;BME280;59072;42.144;25.200;2023-04-26T06:52:11;99099.44;;;16.32;95.75
71149;BME280;59072;42.144;25.200;2023-04-26T06:54:36;99110.78;;;16.63;90.70
71149;BME280;59072;42.144;25.200;2023-04-26T06:57:02;99096.47;;;16.68;93.47
71149;BME280;59072;42.144;25.200;2023-04-26T06:59:27;99107.84;;;16.60;90.70
71149;BME280;59072;42.144;25.200;2023-04-26T07:01:53;99107.34;;;16.18;97.88
71149;BME280;59072;42.144;25.200;2023-04-26T07:04:18;99108.06;;;16.29;95.70
71149;BME280;59072;42.144;25.200;2023-04-26T07:06:44;99108.44;;;16.52;99.00
71149;BME280;59072;42.144;25.200;2023-04-26T07:09:10;99116.81;;;16.11;96.00
71149;BME280;59072;42.144;25.200;2023-04-26T07:11:36;99111.28;;;16.31;94.26
71149;BME280;59072;42.144;25.200;2023-04-26T07:14:03;99100.16;;;16.09;96.47
71149;BME280;59072;42.144;25.200;2023-04-26T07:16:29;99103.16;;;16.41;95.95
71149;BME280;59072;42.144;25.200;2023-04-26T07:18:55;99094.50;;;16.44;93.38
71149;BME280;59072;42.144;25.200;2023-04-26T07:21:23;99106.03;;;16.84;91.65
71149;BME280;59072;42.144;25.200;2023-04-26T07:23:52;99097.19;;;16.44;90.47
71149;BME280;59072;42.144;25.200;2023-04-26T07:26:18;99105.00;;;16.46;97.50
71149;BME280;59072;42.144;25.200;2023-04-26T07:28:43;99095.94;;;17.24;90.02
71149;BME280;59072;42.144;25.200;2023-04-26T07:31:09;99097.44;;;17.36;91.71
71149;BME280;59072;42.144;25.200;2023-04-26T07:33:34;99102.28;;;17.10;96.66
71149;BME280;59072;42.144;25.200;2023-04-26T07:35:59;99113.41;;;17.03;92.04
71149;BME280;59072;42.144;25.200;2023-04-26T07:38:25;99096.47;;;16.68;94.21
71149;BME280;59072;42.144;25.200;2023-04-26T07:40:51;99119.50;;;16.11;88.76
71149;BME280;59072;42.144;25.200;2023-04-26T07:43:18;99118.72;;;16.44;89.88
71149;BME280;59072;42.144;25.200;2023-04-26T07:45:43;99118.50;;;16.36;92.58
71149;BME280;59072;42.144;25.200;2023-04-26T07:48:09;99118.56;;;16.65;92.26
71149;BME280;59072;42.144;25.200;2023-04-26T07:50:34;99128.38;;;16.85;95.39
71149;BME280;59072;42.144;25.200;2023-04-26T07:53:00;99127.59;;;16.84;89.36
71149;BME280;59072;42.144;25.200;2023-04-26T07:55:25;99123.84;;;17.10;86.81
71149;BME280;59072;42.144;25.200;2023-04-26T07:57:51;99120.16;;;17.00;84.88
71149;BME280;59072;42.144;25.200;2023-04-26T08:00:17;99112.03;;;17.05;89.10
71149;BME280;59072;42.144;25.200;2023-04-26T08:02:43;99114.47;;;17.55;88.81
71149;BME280;59072;42.144;25.200;2023-04-26T08:05:12;99109.06;;;17.07;86.04
71149;BME280;59072;42.144;25.200;2023-04-26T08:07:38;99112.28;;;17.09;87.71
71149;BME280;59072;42.144;25.200;2023-04-26T08:10:04;99121.56;;;17.70;83.75
71149;BME280;59072;42.144;25.200;2023-04-26T08:12:30;99109.06;;;17.55;88.23
71149;BME280;59072;42.144;25.200;2023-04-26T08:14:58;99103.97;;;17.73;85.78
71149;BME280;59072;42.144;25.200;2023-04-26T08:17:25;99112.94;;;18.11;87.71
71149;BME280;59072;42.144;25.200;2023-04-26T08:19:50;99106.63;;;18.35;80.80
71149;BME280;59072;42.144;25.200;2023-04-26T08:22:16;99114.38;;;18.22;78.71
71149;BME280;59072;42.144;25.200;2023-04-26T08:24:46;99106.78;;;19.09;70.57
71149;BME280;59072;42.144;25.200;2023-04-26T08:27:11;99108.78;;;19.45;67.19
71149;BME280;59072;42.144;25.200;2023-04-26T08:29:37;99104.19;;;19.18;67.37
71149;BME280;59072;42.144;25.200;2023-04-26T08:32:02;99099.59;;;19.60;61.34
71149;BME280;59072;42.144;25.200;2023-04-26T08:34:28;99107.59;;;19.79;61.52
71149;BME280;59072;42.144;25.200;2023-04-26T08:36:53;99106.41;;;19.71;62.92
71149;BME280;59072;42.144;25.200;2023-04-26T08:39:19;99099.56;;;19.87;60.92
71149;BME280;59072;42.144;25.200;2023-04-26T08:41:49;99086.13;;;19.68;58.90
71149;BME280;59072;42.144;25.200;2023-04-26T08:44:17;99084.66;;;19.62;62.69
71149;BME280;59072;42.144;25.200;2023-04-26T08:49:41;99089.66;;;19.83;57.16
71149;BME280;59072;42.144;25.200;2023-04-26T08:52:09;99094.84;;;19.79;59.12
71149;BME280;59072;42.144;25.200;2023-04-26T08:54:36;99085.00;;;19.97;55.12
71149;BME280;59072;42.144;25.200;2023-04-26T08:57:02;99086.56;;;19.76;57.97
71149;BME280;59072;42.144;25.200;2023-04-26T08:59:29;99085.47;;;20.13;57.88
71149;BME280;59072;42.144;25.200;2023-04-26T09:01:59;99090.94;;;20.44;55.87
71149;BME280;59072;42.144;25.200;2023-04-26T09:04:25;99084.03;;;20.16;55.49
71149;BME280;59072;42.144;25.200;2023-04-26T09:06:52;99082.47;;;20.37;54.76
71149;BME280;59072;42.144;25.200;2023-04-26T09:09:21;99078.94;;;20.59;51.23
71149;BME280;59072;42.144;25.200;2023-04-26T09:11:57;99089.22;;;20.71;52.05
71149;BME280;59072;42.144;25.200;2023-04-26T09:14:24;99084.75;;;21.38;49.58
71149;BME280;59072;42.144;25.200;2023-04-26T09:16:50;99080.59;;;21.32;48.36
71149;BME280;59072;42.144;25.200;2023-04-26T09:19:16;99056.94;;;21.23;46.76
71149;BME280;59072;42.144;25.200;2023-04-26T09:21:43;99069.31;;;21.47;48.58
71149;BME280;59072;42.144;25.200;2023-04-26T09:24:09;99074.06;;;21.41;51.71
71149;BME280;59072;42.144;25.200;2023-04-26T09:26:35;99077.56;;;21.33;48.41
71149;BME280;59072;42.144;25.200;2023-04-26T09:29:19;99068.59;;;21.24;52.18
71149;BME280;59072;42.144;25.200;2023-04-26T09:31:47;99074.81;;;20.84;51.95
71149;BME280;59072;42.144;25.200;2023-04-26T09:34:14;99067.38;;;20.99;50.78
71149;BME280;59072;42.144;25.200;2023-04-26T09:36:50;99067.44;;;21.16;48.18
71149;BME280;59072;42.144;25.200;2023-04-26T09:39:33;99056.97;;;21.41;48.78
71149;BME280;59072;42.144;25.200;2023-04-26T09:41:59;99068.88;;;21.62;50.44
71149;BME280;59072;42.144;25.200;2023-04-26T09:44:28;99055.91;;;20.71;52.07
71149;BME280;59072;42.144;25.200;2023-04-26T09:47:03;99073.81;;;21.20;51.41
71149;BME280;59072;42.144;25.200;2023-04-26T09:49:50;99075.91;;;20.83;49.00
71149;BME280;59072;42.144;25.200;2023-04-26T09:52:17;99065.19;;;21.50;48.21
71149;BME280;59072;42.144;25.200;2023-04-26T09:57:14;99061.72;;;22.10;44.94
71149;BME280;59072;42.144;25.200;2023-04-26T09:59:50;99049.09;;;22.23;43.62
71149;BME280;59072;42.144;25.200;2023-04-26T10:02:26;99065.25;;;22.28;42.31
71149;BME280;59072;42.144;25.200;2023-04-26T10:04:55;99062.38;;;22.24;46.55
71149;BME280;59072;42.144;25.200;2023-04-26T10:07:22;99042.25;;;21.16;44.87
71149;BME280;59072;42.144;25.200;2023-04-26T10:09:48;99060.22;;;20.72;49.09
71149;BME280;59072;42.144;25.200;2023-04-26T10:12:16;99054.44;;;20.96;49.07
71149;BME280;59072;42.144;25.200;2023-04-26T10:14:43;99057.41;;;20.85;50.60
71149;BME280;59072;42.144;25.200;2023-04-26T10:17:09;99029.94;;;20.70;47.82
71149;BME280;59072;42.144;25.200;2023-04-26T10:19:37;99049.59;;;20.07;48.55
71149;BME280;59072;42.144;25.200;2023-04-26T10:22:15;99033.97;;;20.04;49.71
71149;BME280;59072;42.144;25.200;2023-04-26T10:24:43;99044.66;;;19.87;49.42
71149;BME280;59072;42.144;25.200;2023-04-26T10:27:08;99040.63;;;19.98;50.13
71149;BME280;59072;42.144;25.200;2023-04-26T10:32:21;99048.06;;;19.65;52.85
71149;BME280;59072;42.144;25.200;2023-04-26T10:35:26;99037.19;;;19.42;54.22
71149;BME280;59072;42.144;25.200;2023-04-26T10:40:26;99050.28;;;19.49;52.01
71149;BME280;59072;42.144;25.200;2023-04-26T10:45:36;99053.53;;;19.23;51.37
71149;BME280;59072;42.144;25.200;2023-04-26T10:56:08;99050.03;;;18.95;46.25
71149;BME280;59072;42.144;25.200;2023-04-26T10:58:35;99051.72;;;19.05;48.88
71149;BME280;59072;42.144;25.200;2023-04-26T11:03:30;99047.09;;;18.92;48.97
71149;BME280;59072;42.144;25.200;2023-04-26T11:05:56;99044.06;;;18.65;48.21
71149;BME280;59072;42.144;25.200;2023-04-26T11:08:26;99041.13;;;18.95;50.62
71149;BME280;59072;42.144;25.200;2023-04-26T11:13:31;99049.03;;;18.58;45.58
71149;BME280;59072;42.144;25.200;2023-04-26T11:16:01;99031.16;;;17.35;56.81
71149;BME280;59072;42.144;25.200;2023-04-26T11:18:34;99038.97;;;16.88;61.43
71149;BME280;59072;42.144;25.200;2023-04-26T11:21:01;99052.59;;;15.99;62.11
71149;BME280;59072;42.144;25.200;2023-04-26T11:23:28;99041.13;;;15.83;64.36
71149;BME280;59072;42.144;25.200;2023-04-26T11:26:02;99025.81;;;15.29;67.15
71149;BME280;59072;42.144;25.200;2023-04-26T11:28:31;99020.56;;;14.93;67.77
71149;BME280;59072;42.144;25.200;2023-04-26T11:30:58;99032.94;;;14.94;69.57
71149;BME280;59072;42.144;25.200;2023-04-26T11:33:24;99026.50;;;14.90;68.81
71149;BME280;59072;42.144;25.200;2023-04-26T11:35:51;99011.78;;;14.72;69.89
71149;BME280;59072;42.144;25.200;2023-04-26T11:38:20;99024.88;;;14.94;69.48
71149;BME280;59072;42.144;25.200;2023-04-26T11:40:52;99022.44;;;14.87;70.61
71149;BME280;59072;42.144;25.200;2023-04-26T11:43:19;99022.16;;;15.04;69.65
71149;BME280;59072;42.144;25.200;2023-04-26T11:45:44;99027.75;;;15.07;70.50
71149;BME280;59072;42.144;25.200;2023-04-26T11:48:11;99028.03;;;15.11;70.20
71149;BME280;59072;42.144;25.200;2023-04-26T11:50:38;99030.22;;;15.04;69.97
71149;BME280;59072;42.144;25.200;2023-04-26T11:53:05;99032.06;;;15.03;70.53
71149;BME280;59072;42.144;25.200;2023-04-26T11:55:32;99032.91;;;14.99;70.40
71149;BME280;59072;42.144;25.200;2023-04-26T11:58:08;99024.34;;;14.92;68.71
71149;BME280;59072;42.144;25.200;2023-04-26T12:00:34;99045.84;;;14.71;71.75
71149;BME280;59072;42.144;25.200;2023-04-26T12:03:08;99042.03;;;14.93;71.10
71149;BME280;59072;42.144;25.200;2023-04-26T12:05:35;99062.13;;;15.05;69.43
71149;BME280;59072;42.144;25.200;2023-04-26T12:08:00;99068.50;;;15.30;68.33
71149;BME280;59072;42.144;25.200;2023-04-26T12:10:36;99074.44;;;15.27;70.65
71149;BME280;59072;42.144;25.200;2023-04-26T12:13:02;99072.00;;;15.25;71.76
71149;BME280;59072;42.144;25.200;2023-04-26T12:15:30;99061.28;;;15.25;72.08
71149;BME280;59072;42.144;25.200;2023-04-26T12:20:31;99081.72;;;15.86;71.03
71149;BME280;59072;42.144;25.200;2023-04-26T12:22:58;99089.97;;;16.00;67.76
71149;BME280;59072;42.144;25.200;2023-04-26T12:25:24;99070.66;;;15.93;67.41
71149;BME280;59072;42.144;25.200;2023-04-26T12:27:49;99080.88;;;15.96;66.10
71149;BME280;59072;42.144;25.200;2023-04-26T12:30:15;99081.41;;;15.93;66.70
71149;BME280;59072;42.144;25.200;2023-04-26T12:32:40;99098.03;;;16.00;67.36
71149;BME280;59072;42.144;25.200;2023-04-26T12:35:06;99090.31;;;16.28;65.71
71149;BME280;59072;42.144;25.200;2023-04-26T12:37:32;99092.53;;;16.21;68.31
71149;BME280;59072;42.144;25.200;2023-04-26T12:39:57;99085.53;;;16.20;67.63
71149;BME280;59072;42.144;25.200;2023-04-26T12:42:22;99108.75;;;16.11;68.90
71149;BME280;59072;42.144;25.200;2023-04-26T12:44:48;99104.94;;;16.12;69.64
71149;BME280;59072;42.144;25.200;2023-04-26T12:47:13;99109.91;;;15.94;75.74
71149;BME280;59072;42.144;25.200;2023-04-26T12:49:39;99107.84;;;15.76;79.84
71149;BME280;59072;42.144;25.200;2023-04-26T12:52:04;99100.53;;;15.11;81.14
71149;BME280;59072;42.144;25.200;2023-04-26T12:54:30;99110.78;;;14.58;85.73
71149;BME280;59072;42.144;25.200;2023-04-26T12:56:56;99125.28;;;14.57;87.98
71149;BME280;59072;42.144;25.200;2023-04-26T12:59:21;99132.25;;;14.58;85.52
71149;BME280;59072;42.144;25.200;2023-04-26T13:01:47;99132.25;;;14.58;87.05
71149;BME280;59072;42.144;25.200;2023-04-26T13:04:12;99135.44;;;14.39;91.31
71149;BME280;59072;42.144;25.200;2023-04-26T13:06:39;99133.81;;;14.38;89.96
71149;BME280;59072;42.144;25.200;2023-04-26T13:09:04;99131.69;;;14.45;89.88
71149;BME280;59072;42.144;25.200;2023-04-26T13:11:32;99127.09;;;14.20;91.07